Date,TemperatureHighF,TemperatureAvgF,TemperatureLowF,DewpointHighF,DewpointAvgF,DewpointLowF,HumidityHigh,HumidityAvg,HumidityLow,PressureMaxIn,PressureMinIn,WindSpeedMaxMPH,WindSpeedAvgMPH,GustSpeedMaxMPH,PrecipitationSumIn
2013-4-1,28.0,17.9,6.0,19.0,13.0,5.0,94,82,65,0.00,40.00,12,8,13,0.00
2013-4-2,31.0,21.0,12.0,21.0,16.4,11.0,99,84,61,0.00,40.00,9,5,10,0.00
2013-4-3,39.0,28.3,16.0,38.0,27.1,16.0,99,96,80,0.00,40.00,26,14,28,0.00
2013-4-4,36.0,27.9,18.0,32.0,24.6,17.0,96,87,80,0.00,40.00,20,12,24,0.00
2013-4-5,31.0,23.5,12.0,31.0,22.4,12.0,99,96,84,0.00,40.00,16,7,19,0.00
2013-4-6,36.0,32.3,28.0,36.0,32.1,28.0,99,99,99,0.00,40.00,14,7,17,0.00
2013-4-7,35.0,32.8,31.0,33.0,32.0,31.0,99,97,88,0.00,40.00,12,5,13,0.00
2013-4-8,32.0,23.0,15.0,32.0,20.9,11.0,99,91,78,0.00,40.00,21,16,26,0.00
2013-4-9,26.0,17.1,9.0,18.0,11.9,5.0,95,80,67,0.00,40.00,17,11,21,0.00
2013-4-10,32.0,24.7,18.0,28.0,22.5,17.0,99,92,78,0.00,40.00,13,8,16,0.00
2013-4-11,33.0,29.0,26.0,28.0,26.1,23.0,99,90,68,0.00,40.00,16,10,17,0.00
2013-4-12,32.0,29.4,28.0,32.0,29.1,28.0,99,99,97,0.00,40.00,14,9,17,0.00
2013-4-13,34.0,29.9,25.0,29.0,27.2,25.0,99,90,76,0.00,40.00,10,6,11,0.00
2013-4-14,39.0,31.6,25.0,35.0,28.3,25.0,99,90,66,0.00,40.00,21,13,26,0.00
2013-4-15,33.0,32.0,31.0,33.0,31.7,30.0,99,99,99,0.00,40.00,22,17,24,0.00
2013-4-16,32.0,30.5,28.0,32.0,29.6,28.0,99,96,89,0.00,40.00,16,10,18,0.00
2013-4-17,34.0,31.2,28.0,33.0,29.8,28.0,99,95,85,0.00,40.00,11,6,13,0.00
2013-4-18,36.0,32.0,29.0,33.0,28.0,24.0,99,86,65,0.00,40.00,22,14,26,0.00
2013-4-19,33.0,28.6,24.0,26.0,23.5,21.0,89,81,72,0.00,40.00,22,15,26,0.00
2013-4-20,33.0,25.1,17.0,29.0,21.0,16.0,96,85,64,0.00,40.00,13,7,15,0.00
2013-4-21,39.0,33.9,30.0,38.0,33.1,29.0,99,97,91,0.00,40.00,22,15,27,0.00
2013-4-22,34.0,30.1,25.0,30.0,26.2,24.0,96,86,72,0.00,40.00,16,11,18,0.00
2013-4-23,39.0,30.5,21.0,31.0,25.9,21.0,99,84,62,0.00,40.00,11,8,12,0.00
2013-4-24,39.0,32.4,24.0,36.0,31.3,24.0,99,96,86,0.00,40.00,21,10,25,0.00
2013-4-25,40.0,33.9,25.0,39.0,32.1,25.0,99,93,83,0.00,40.00,21,12,23,0.00
2013-4-26,60.0,47.4,33.0,52.0,41.9,33.0,99,83,55,0.00,40.00,11,6,13,0.00
2013-4-27,68.0,57.3,45.0,59.0,48.6,40.0,99,74,55,0.00,40.00,24,13,26,0.00
2013-4-28,61.0,51.0,41.0,53.0,44.3,36.0,99,79,54,0.00,40.00,24,11,29,0.00
2013-4-29,61.0,46.6,32.0,50.0,40.7,31.0,99,82,55,0.00,40.00,20,9,21,0.00
2013-4-30,51.0,46.0,33.0,49.0,42.5,28.0,99,88,70,0.00,40.00,29,16,36,0.00